Terminal Aerodrome Forecast
Issued by NWS

Home | Current Version | Previous Version | Text Only | Print | Product List | Glossary On
Versions: 1 2 3 4 5 6 7 8 9 10 11 12 13 14 15 16 17 18 19 20 21 22
000
FTUS46 KSEW 242300
TAFBFI
TAF
KBFI 242320Z 2500/2524 16005KT P6SM BKN030 OVC050
     FM250100 15004KT P6SM SCT035 BKN060
     FM251500 10002KT P6SM SCT015 BKN030
     FM251900 14004KT P6SM SCT030 BKN060=

USA.gov is the U.S. government's official web portal to all federal, state and local government web resources and services.